sensor_id;sensor_type;location;lat;lon;timestamp;P1;durP1;ratioP1;P2;durP2;ratioP2
47912;SDS011;33676;51.006;17.180;2022-07-06T00:00:52;7.30;;;6.70;;
47912;SDS011;33676;51.006;17.180;2022-07-06T00:03:21;7.70;;;6.90;;
47912;SDS011;33676;51.006;17.180;2022-07-06T00:05:50;6.70;;;6.20;;
47912;SDS011;33676;51.006;17.180;2022-07-06T00:08:19;6.30;;;5.90;;
47912;SDS011;33676;51.006;17.180;2022-07-06T00:10:48;5.60;;;4.40;;
47912;SDS011;33676;51.006;17.180;2022-07-06T00:13:17;6.40;;;5.80;;
47912;SDS011;33676;51.006;17.180;2022-07-06T00:15:46;5.70;;;5.20;;
47912;SDS011;33676;51.006;17.180;2022-07-06T00:18:15;5.30;;;4.90;;
47912;SDS011;33676;51.006;17.180;2022-07-06T00:20:44;5.70;;;5.40;;
47912;SDS011;33676;51.006;17.180;2022-07-06T00:23:12;5.50;;;5.00;;
47912;SDS011;33676;51.006;17.180;2022-07-06T00:25:41;5.50;;;5.10;;
47912;SDS011;33676;51.006;17.180;2022-07-06T00:28:10;5.70;;;5.30;;
47912;SDS011;33676;51.006;17.180;2022-07-06T00:30:39;6.30;;;5.80;;
47912;SDS011;33676;51.006;17.180;2022-07-06T00:33:08;7.20;;;6.50;;
47912;SDS011;33676;51.006;17.180;2022-07-06T00:35:37;5.30;;;5.00;;
47912;SDS011;33676;51.006;17.180;2022-07-06T00:38:06;6.50;;;6.00;;
47912;SDS011;33676;51.006;17.180;2022-07-06T00:40:38;6.50;;;6.00;;
47912;SDS011;33676;51.006;17.180;2022-07-06T00:43:07;7.50;;;6.90;;
47912;SDS011;33676;51.006;17.180;2022-07-06T00:45:35;6.90;;;6.30;;
47912;SDS011;33676;51.006;17.180;2022-07-06T00:48:05;7.60;;;7.10;;
47912;SDS011;33676;51.006;17.180;2022-07-06T00:50:34;6.70;;;6.00;;
47912;SDS011;33676;51.006;17.180;2022-07-06T00:53:05;5.80;;;5.50;;
47912;SDS011;33676;51.006;17.180;2022-07-06T00:55:37;5.40;;;4.90;;
47912;SDS011;33676;51.006;17.180;2022-07-06T00:58:10;6.70;;;6.10;;
47912;SDS011;33676;51.006;17.180;2022-07-06T01:00:39;7.10;;;6.50;;
47912;SDS011;33676;51.006;17.180;2022-07-06T01:03:13;7.60;;;7.00;;
47912;SDS011;33676;51.006;17.180;2022-07-06T01:05:42;6.70;;;6.20;;
47912;SDS011;33676;51.006;17.180;2022-07-06T01:08:12;7.00;;;6.30;;
47912;SDS011;33676;51.006;17.180;2022-07-06T01:10:41;7.30;;;6.60;;
47912;SDS011;33676;51.006;17.180;2022-07-06T01:13:09;6.90;;;6.40;;
47912;SDS011;33676;51.006;17.180;2022-07-06T01:15:38;6.70;;;6.10;;
47912;SDS011;33676;51.006;17.180;2022-07-06T01:18:09;6.30;;;5.80;;
47912;SDS011;33676;51.006;17.180;2022-07-06T01:20:40;5.80;;;5.40;;
47912;SDS011;33676;51.006;17.180;2022-07-06T01:23:09;7.50;;;6.90;;
47912;SDS011;33676;51.006;17.180;2022-07-06T01:25:37;6.10;;;5.70;;
47912;SDS011;33676;51.006;17.180;2022-07-06T01:28:06;7.10;;;6.20;;
47912;SDS011;33676;51.006;17.180;2022-07-06T01:30:35;6.70;;;6.20;;
47912;SDS011;33676;51.006;17.180;2022-07-06T01:33:04;6.60;;;6.10;;
47912;SDS011;33676;51.006;17.180;2022-07-06T01:35:32;6.30;;;5.70;;
47912;SDS011;33676;51.006;17.180;2022-07-06T01:38:05;7.70;;;5.70;;
47912;SDS011;33676;51.006;17.180;2022-07-06T01:40:33;5.90;;;5.40;;
47912;SDS011;33676;51.006;17.180;2022-07-06T01:43:02;6.30;;;5.50;;
47912;SDS011;33676;51.006;17.180;2022-07-06T01:45:31;6.00;;;5.60;;
47912;SDS011;33676;51.006;17.180;2022-07-06T01:48:05;6.00;;;5.50;;
47912;SDS011;33676;51.006;17.180;2022-07-06T01:50:34;5.80;;;5.40;;
47912;SDS011;33676;51.006;17.180;2022-07-06T01:53:03;7.00;;;6.30;;
47912;SDS011;33676;51.006;17.180;2022-07-06T01:55:32;7.40;;;6.70;;
47912;SDS011;33676;51.006;17.180;2022-07-06T01:58:01;7.80;;;6.40;;
47912;SDS011;33676;51.006;17.180;2022-07-06T02:00:30;8.00;;;7.40;;
47912;SDS011;33676;51.006;17.180;2022-07-06T02:02:58;7.50;;;6.70;;
47912;SDS011;33676;51.006;17.180;2022-07-06T02:05:27;6.20;;;5.80;;
47912;SDS011;33676;51.006;17.180;2022-07-06T02:07:56;5.90;;;5.50;;
47912;SDS011;33676;51.006;17.180;2022-07-06T02:10:25;6.50;;;5.90;;
47912;SDS011;33676;51.006;17.180;2022-07-06T02:12:54;8.70;;;6.50;;
47912;SDS011;33676;51.006;17.180;2022-07-06T02:15:22;6.20;;;5.70;;
47912;SDS011;33676;51.006;17.180;2022-07-06T02:17:51;6.20;;;5.80;;
47912;SDS011;33676;51.006;17.180;2022-07-06T02:20:20;7.00;;;5.70;;
47912;SDS011;33676;51.006;17.180;2022-07-06T02:22:49;8.30;;;6.40;;
47912;SDS011;33676;51.006;17.180;2022-07-06T02:25:18;6.70;;;6.20;;
47912;SDS011;33676;51.006;17.180;2022-07-06T02:27:46;8.10;;;7.50;;
47912;SDS011;33676;51.006;17.180;2022-07-06T02:30:15;6.70;;;6.10;;
47912;SDS011;33676;51.006;17.180;2022-07-06T02:32:44;9.70;;;7.10;;
47912;SDS011;33676;51.006;17.180;2022-07-06T02:35:13;8.70;;;6.80;;
47912;SDS011;33676;51.006;17.180;2022-07-06T02:37:42;6.40;;;5.90;;
47912;SDS011;33676;51.006;17.180;2022-07-06T02:40:11;6.70;;;6.20;;
47912;SDS011;33676;51.006;17.180;2022-07-06T02:42:40;7.00;;;6.20;;
47912;SDS011;33676;51.006;17.180;2022-07-06T02:45:10;6.00;;;5.50;;
47912;SDS011;33676;51.006;17.180;2022-07-06T02:47:39;8.50;;;6.20;;
47912;SDS011;33676;51.006;17.180;2022-07-06T02:50:08;8.20;;;6.60;;
47912;SDS011;33676;51.006;17.180;2022-07-06T02:52:37;6.10;;;5.60;;
47912;SDS011;33676;51.006;17.180;2022-07-06T02:55:08;6.70;;;6.10;;
47912;SDS011;33676;51.006;17.180;2022-07-06T02:57:37;7.10;;;6.10;;
47912;SDS011;33676;51.006;17.180;2022-07-06T03:00:06;5.90;;;5.50;;
47912;SDS011;33676;51.006;17.180;2022-07-06T03:02:37;7.90;;;6.30;;
47912;SDS011;33676;51.006;17.180;2022-07-06T03:05:06;7.70;;;6.80;;
47912;SDS011;33676;51.006;17.180;2022-07-06T03:07:35;8.20;;;7.50;;
47912;SDS011;33676;51.006;17.180;2022-07-06T03:10:05;10.50;;;6.20;;
47912;SDS011;33676;51.006;17.180;2022-07-06T03:12:34;8.20;;;6.20;;
47912;SDS011;33676;51.006;17.180;2022-07-06T03:15:03;6.30;;;5.80;;
47912;SDS011;33676;51.006;17.180;2022-07-06T03:17:32;6.80;;;6.20;;
47912;SDS011;33676;51.006;17.180;2022-07-06T03:20:01;6.90;;;6.00;;
47912;SDS011;33676;51.006;17.180;2022-07-06T03:22:31;8.80;;;5.90;;
47912;SDS011;33676;51.006;17.180;2022-07-06T03:25:00;6.60;;;6.00;;
47912;SDS011;33676;51.006;17.180;2022-07-06T03:27:28;7.60;;;7.00;;
47912;SDS011;33676;51.006;17.180;2022-07-06T03:29:57;6.50;;;6.00;;
47912;SDS011;33676;51.006;17.180;2022-07-06T03:32:26;7.70;;;7.00;;
47912;SDS011;33676;51.006;17.180;2022-07-06T03:34:54;12.80;;;6.80;;
47912;SDS011;33676;51.006;17.180;2022-07-06T03:37:23;11.60;;;7.90;;
47912;SDS011;33676;51.006;17.180;2022-07-06T03:39:52;14.10;;;8.30;;
47912;SDS011;33676;51.006;17.180;2022-07-06T03:42:21;15.40;;;11.50;;
47912;SDS011;33676;51.006;17.180;2022-07-06T03:44:50;14.50;;;10.70;;
47912;SDS011;33676;51.006;17.180;2022-07-06T03:47:19;23.80;;;12.10;;
47912;SDS011;33676;51.006;17.180;2022-07-06T03:49:48;25.30;;;13.30;;
47912;SDS011;33676;51.006;17.180;2022-07-06T03:52:16;17.60;;;13.00;;
47912;SDS011;33676;51.006;17.180;2022-07-06T03:54:45;19.60;;;13.60;;
47912;SDS011;33676;51.006;17.180;2022-07-06T03:57:14;17.90;;;12.90;;
47912;SDS011;33676;51.006;17.180;2022-07-06T03:59:43;18.40;;;12.90;;
47912;SDS011;33676;51.006;17.180;2022-07-06T04:02:12;13.00;;;10.20;;
47912;SDS011;33676;51.006;17.180;2022-07-06T04:04:41;15.40;;;11.50;;
47912;SDS011;33676;51.006;17.180;2022-07-06T04:07:09;9.70;;;8.70;;
47912;SDS011;33676;51.006;17.180;2022-07-06T04:09:38;11.60;;;8.40;;
47912;SDS011;33676;51.006;17.180;2022-07-06T04:12:07;10.30;;;7.60;;
47912;SDS011;33676;51.006;17.180;2022-07-06T04:14:36;10.00;;;8.80;;
47912;SDS011;33676;51.006;17.180;2022-07-06T04:17:05;9.80;;;8.50;;
47912;SDS011;33676;51.006;17.180;2022-07-06T04:19:52;8.20;;;7.40;;
47912;SDS011;33676;51.006;17.180;2022-07-06T04:22:20;8.90;;;7.70;;
47912;SDS011;33676;51.006;17.180;2022-07-06T04:24:49;9.10;;;6.80;;
47912;SDS011;33676;51.006;17.180;2022-07-06T04:27:18;13.30;;;7.80;;
47912;SDS011;33676;51.006;17.180;2022-07-06T04:29:47;7.80;;;7.00;;
47912;SDS011;33676;51.006;17.180;2022-07-06T04:32:16;7.90;;;6.50;;
47912;SDS011;33676;51.006;17.180;2022-07-06T04:34:52;6.70;;;5.50;;
47912;SDS011;33676;51.006;17.180;2022-07-06T04:37:21;6.50;;;5.90;;
47912;SDS011;33676;51.006;17.180;2022-07-06T04:39:50;6.10;;;5.50;;
47912;SDS011;33676;51.006;17.180;2022-07-06T04:42:18;5.80;;;4.90;;
47912;SDS011;33676;51.006;17.180;2022-07-06T04:44:50;5.40;;;5.00;;
47912;SDS011;33676;51.006;17.180;2022-07-06T04:47:22;5.30;;;4.80;;
47912;SDS011;33676;51.006;17.180;2022-07-06T04:49:51;5.20;;;4.60;;
47912;SDS011;33676;51.006;17.180;2022-07-06T04:52:19;5.80;;;5.10;;
47912;SDS011;33676;51.006;17.180;2022-07-06T04:54:48;8.30;;;5.10;;
47912;SDS011;33676;51.006;17.180;2022-07-06T04:57:17;5.70;;;4.90;;
47912;SDS011;33676;51.006;17.180;2022-07-06T04:59:46;5.60;;;5.10;;
47912;SDS011;33676;51.006;17.180;2022-07-06T05:02:15;6.50;;;5.10;;
47912;SDS011;33676;51.006;17.180;2022-07-06T05:04:44;4.90;;;4.50;;
47912;SDS011;33676;51.006;17.180;2022-07-06T05:07:13;7.10;;;5.70;;
47912;SDS011;33676;51.006;17.180;2022-07-06T05:09:42;5.40;;;5.00;;
47912;SDS011;33676;51.006;17.180;2022-07-06T05:12:18;5.80;;;5.30;;
47912;SDS011;33676;51.006;17.180;2022-07-06T05:14:47;11.10;;;6.50;;
47912;SDS011;33676;51.006;17.180;2022-07-06T05:17:16;6.60;;;5.60;;
47912;SDS011;33676;51.006;17.180;2022-07-06T05:19:45;7.20;;;6.50;;
47912;SDS011;33676;51.006;17.180;2022-07-06T05:22:14;5.70;;;5.30;;
47912;SDS011;33676;51.006;17.180;2022-07-06T05:24:43;6.80;;;6.10;;
47912;SDS011;33676;51.006;17.180;2022-07-06T05:27:12;7.10;;;6.50;;
47912;SDS011;33676;51.006;17.180;2022-07-06T05:29:40;7.10;;;6.50;;
47912;SDS011;33676;51.006;17.180;2022-07-06T05:32:09;7.10;;;6.50;;
47912;SDS011;33676;51.006;17.180;2022-07-06T05:34:38;7.40;;;6.80;;
47912;SDS011;33676;51.006;17.180;2022-07-06T05:37:08;6.80;;;6.20;;
47912;SDS011;33676;51.006;17.180;2022-07-06T05:39:37;7.10;;;6.60;;
47912;SDS011;33676;51.006;17.180;2022-07-06T05:42:10;6.60;;;6.10;;
47912;SDS011;33676;51.006;17.180;2022-07-06T05:44:39;7.00;;;6.40;;
47912;SDS011;33676;51.006;17.180;2022-07-06T05:47:08;7.70;;;7.10;;
47912;SDS011;33676;51.006;17.180;2022-07-06T05:49:55;7.00;;;6.50;;
47912;SDS011;33676;51.006;17.180;2022-07-06T05:53:02;7.60;;;6.90;;
47912;SDS011;33676;51.006;17.180;2022-07-06T05:55:47;7.40;;;6.80;;
47912;SDS011;33676;51.006;17.180;2022-07-06T05:58:16;7.50;;;6.80;;
47912;SDS011;33676;51.006;17.180;2022-07-06T06:00:45;6.40;;;5.90;;
47912;SDS011;33676;51.006;17.180;2022-07-06T06:03:14;7.40;;;6.80;;
47912;SDS011;33676;51.006;17.180;2022-07-06T06:05:43;6.80;;;6.20;;
47912;SDS011;33676;51.006;17.180;2022-07-06T06:08:12;8.00;;;6.80;;
47912;SDS011;33676;51.006;17.180;2022-07-06T06:10:41;7.00;;;6.50;;
47912;SDS011;33676;51.006;17.180;2022-07-06T06:13:10;7.10;;;6.30;;
47912;SDS011;33676;51.006;17.180;2022-07-06T06:15:38;7.20;;;6.60;;
47912;SDS011;33676;51.006;17.180;2022-07-06T06:18:07;6.50;;;5.90;;
47912;SDS011;33676;51.006;17.180;2022-07-06T06:20:36;6.90;;;6.40;;
47912;SDS011;33676;51.006;17.180;2022-07-06T06:23:05;7.40;;;6.30;;
47912;SDS011;33676;51.006;17.180;2022-07-06T06:25:38;8.20;;;7.40;;
47912;SDS011;33676;51.006;17.180;2022-07-06T06:28:10;7.00;;;6.30;;
47912;SDS011;33676;51.006;17.180;2022-07-06T06:30:39;7.30;;;6.80;;
47912;SDS011;33676;51.006;17.180;2022-07-06T06:38:15;6.20;;;5.70;;
47912;SDS011;33676;51.006;17.180;2022-07-06T06:40:45;7.10;;;6.50;;
47912;SDS011;33676;51.006;17.180;2022-07-06T06:43:15;6.70;;;6.10;;
47912;SDS011;33676;51.006;17.180;2022-07-06T06:45:43;6.90;;;6.30;;
47912;SDS011;33676;51.006;17.180;2022-07-06T06:48:13;6.80;;;6.30;;
47912;SDS011;33676;51.006;17.180;2022-07-06T06:50:45;12.10;;;7.40;;
47912;SDS011;33676;51.006;17.180;2022-07-06T06:53:14;6.70;;;6.10;;
47912;SDS011;33676;51.006;17.180;2022-07-06T06:55:43;7.50;;;6.80;;
47912;SDS011;33676;51.006;17.180;2022-07-06T06:58:12;7.50;;;6.70;;
47912;SDS011;33676;51.006;17.180;2022-07-06T07:00:41;6.30;;;5.70;;
47912;SDS011;33676;51.006;17.180;2022-07-06T07:03:11;8.50;;;7.00;;
47912;SDS011;33676;51.006;17.180;2022-07-06T07:05:40;7.90;;;7.20;;
47912;SDS011;33676;51.006;17.180;2022-07-06T07:08:09;7.20;;;6.00;;
47912;SDS011;33676;51.006;17.180;2022-07-06T07:10:38;6.10;;;5.50;;
47912;SDS011;33676;51.006;17.180;2022-07-06T07:13:07;7.40;;;6.70;;
47912;SDS011;33676;51.006;17.180;2022-07-06T07:15:36;6.40;;;5.90;;
47912;SDS011;33676;51.006;17.180;2022-07-06T07:18:05;8.10;;;7.50;;
47912;SDS011;33676;51.006;17.180;2022-07-06T07:20:39;9.10;;;8.20;;
47912;SDS011;33676;51.006;17.180;2022-07-06T07:23:08;8.30;;;7.60;;
47912;SDS011;33676;51.006;17.180;2022-07-06T07:25:37;8.00;;;7.30;;
47912;SDS011;33676;51.006;17.180;2022-07-06T07:28:09;9.30;;;8.30;;
47912;SDS011;33676;51.006;17.180;2022-07-06T07:30:38;8.80;;;8.00;;
47912;SDS011;33676;51.006;17.180;2022-07-06T07:33:07;7.90;;;7.30;;
47912;SDS011;33676;51.006;17.180;2022-07-06T07:35:35;8.10;;;7.40;;
47912;SDS011;33676;51.006;17.180;2022-07-06T07:38:04;7.30;;;6.80;;
47912;SDS011;33676;51.006;17.180;2022-07-06T07:40:33;8.10;;;7.30;;
47912;SDS011;33676;51.006;17.180;2022-07-06T07:43:03;7.80;;;7.10;;
47912;SDS011;33676;51.006;17.180;2022-07-06T07:45:32;8.60;;;7.60;;
47912;SDS011;33676;51.006;17.180;2022-07-06T07:48:01;7.60;;;7.00;;
47912;SDS011;33676;51.006;17.180;2022-07-06T07:50:30;7.40;;;6.80;;
47912;SDS011;33676;51.006;17.180;2022-07-06T07:52:59;7.60;;;7.00;;
47912;SDS011;33676;51.006;17.180;2022-07-06T07:55:28;6.20;;;5.40;;
47912;SDS011;33676;51.006;17.180;2022-07-06T07:58:09;6.20;;;5.70;;
47912;SDS011;33676;51.006;17.180;2022-07-06T08:00:37;5.60;;;5.10;;
47912;SDS011;33676;51.006;17.180;2022-07-06T08:03:06;5.70;;;5.10;;
47912;SDS011;33676;51.006;17.180;2022-07-06T08:05:35;5.10;;;4.70;;
47912;SDS011;33676;51.006;17.180;2022-07-06T08:08:05;4.80;;;4.40;;
47912;SDS011;33676;51.006;17.180;2022-07-06T08:10:34;4.10;;;3.70;;
47912;SDS011;33676;51.006;17.180;2022-07-06T08:13:19;4.20;;;3.90;;
47912;SDS011;33676;51.006;17.180;2022-07-06T08:15:48;3.90;;;3.70;;
47912;SDS011;33676;51.006;17.180;2022-07-06T08:18:17;3.70;;;3.50;;
47912;SDS011;33676;51.006;17.180;2022-07-06T08:20:46;4.80;;;4.50;;
47912;SDS011;33676;51.006;17.180;2022-07-06T08:23:35;5.30;;;4.90;;
47912;SDS011;33676;51.006;17.180;2022-07-06T08:26:05;4.80;;;4.40;;
47912;SDS011;33676;51.006;17.180;2022-07-06T08:28:34;4.30;;;3.90;;
47912;SDS011;33676;51.006;17.180;2022-07-06T08:31:03;5.40;;;4.40;;
47912;SDS011;33676;51.006;17.180;2022-07-06T08:33:32;4.20;;;3.90;;
47912;SDS011;33676;51.006;17.180;2022-07-06T08:36:01;4.20;;;3.90;;
47912;SDS011;33676;51.006;17.180;2022-07-06T08:38:30;4.60;;;4.10;;
47912;SDS011;33676;51.006;17.180;2022-07-06T08:40:59;7.50;;;3.70;;
47912;SDS011;33676;51.006;17.180;2022-07-06T08:43:29;3.90;;;3.60;;
47912;SDS011;33676;51.006;17.180;2022-07-06T08:45:57;3.90;;;3.50;;
47912;SDS011;33676;51.006;17.180;2022-07-06T08:48:27;3.90;;;3.60;;
47912;SDS011;33676;51.006;17.180;2022-07-06T08:50:59;3.30;;;2.90;;
47912;SDS011;33676;51.006;17.180;2022-07-06T08:53:28;2.90;;;2.60;;
47912;SDS011;33676;51.006;17.180;2022-07-06T08:55:57;3.60;;;2.50;;
47912;SDS011;33676;51.006;17.180;2022-07-06T08:58:27;2.60;;;2.40;;
47912;SDS011;33676;51.006;17.180;2022-07-06T09:00:57;3.30;;;3.00;;
47912;SDS011;33676;51.006;17.180;2022-07-06T09:03:27;2.90;;;2.70;;
47912;SDS011;33676;51.006;17.180;2022-07-06T09:05:59;2.50;;;2.40;;
47912;SDS011;33676;51.006;17.180;2022-07-06T09:08:31;2.30;;;2.10;;
47912;SDS011;33676;51.006;17.180;2022-07-06T09:11:00;2.20;;;2.00;;
47912;SDS011;33676;51.006;17.180;2022-07-06T09:13:29;2.90;;;2.80;;
47912;SDS011;33676;51.006;17.180;2022-07-06T09:16:15;2.20;;;2.10;;
47912;SDS011;33676;51.006;17.180;2022-07-06T09:19:05;3.30;;;2.80;;
47912;SDS011;33676;51.006;17.180;2022-07-06T09:21:35;2.20;;;2.10;;
47912;SDS011;33676;51.006;17.180;2022-07-06T09:24:10;2.20;;;2.10;;
47912;SDS011;33676;51.006;17.180;2022-07-06T09:26:40;2.20;;;2.10;;
47912;SDS011;33676;51.006;17.180;2022-07-06T09:29:12;3.00;;;2.10;;
47912;SDS011;33676;51.006;17.180;2022-07-06T09:31:41;2.50;;;2.30;;
47912;SDS011;33676;51.006;17.180;2022-07-06T09:34:10;2.90;;;2.60;;
47912;SDS011;33676;51.006;17.180;2022-07-06T09:36:48;2.40;;;2.20;;
47912;SDS011;33676;51.006;17.180;2022-07-06T09:41:57;2.30;;;2.10;;
47912;SDS011;33676;51.006;17.180;2022-07-06T09:44:30;2.20;;;2.00;;
47912;SDS011;33676;51.006;17.180;2022-07-06T09:47:02;4.00;;;2.10;;
47912;SDS011;33676;51.006;17.180;2022-07-06T09:49:33;3.60;;;2.10;;
47912;SDS011;33676;51.006;17.180;2022-07-06T09:52:11;2.60;;;2.10;;
47912;SDS011;33676;51.006;17.180;2022-07-06T09:54:41;5.20;;;2.50;;
47912;SDS011;33676;51.006;17.180;2022-07-06T09:57:11;2.40;;;2.10;;
47912;SDS011;33676;51.006;17.180;2022-07-06T09:59:41;2.90;;;2.40;;
47912;SDS011;33676;51.006;17.180;2022-07-06T10:02:10;2.90;;;2.60;;
47912;SDS011;33676;51.006;17.180;2022-07-06T10:04:42;4.30;;;2.50;;
47912;SDS011;33676;51.006;17.180;2022-07-06T10:07:14;2.60;;;2.00;;
47912;SDS011;33676;51.006;17.180;2022-07-06T10:09:43;2.10;;;1.90;;
47912;SDS011;33676;51.006;17.180;2022-07-06T10:12:15;2.40;;;2.10;;
47912;SDS011;33676;51.006;17.180;2022-07-06T10:14:46;2.80;;;2.10;;
47912;SDS011;33676;51.006;17.180;2022-07-06T10:17:19;3.80;;;2.80;;
47912;SDS011;33676;51.006;17.180;2022-07-06T10:19:49;2.60;;;2.30;;
47912;SDS011;33676;51.006;17.180;2022-07-06T10:22:19;2.60;;;2.20;;
47912;SDS011;33676;51.006;17.180;2022-07-06T10:24:49;2.30;;;2.10;;
47912;SDS011;33676;51.006;17.180;2022-07-06T10:27:19;2.30;;;2.10;;
47912;SDS011;33676;51.006;17.180;2022-07-06T10:29:48;1.80;;;1.60;;
47912;SDS011;33676;51.006;17.180;2022-07-06T10:32:20;2.60;;;2.10;;
47912;SDS011;33676;51.006;17.180;2022-07-06T10:34:51;3.10;;;2.90;;
47912;SDS011;33676;51.006;17.180;2022-07-06T10:37:27;2.40;;;2.10;;
47912;SDS011;33676;51.006;17.180;2022-07-06T10:39:57;2.00;;;1.40;;
47912;SDS011;33676;51.006;17.180;2022-07-06T10:42:47;2.20;;;1.80;;
47912;SDS011;33676;51.006;17.180;2022-07-06T10:48:18;2.00;;;1.90;;
47912;SDS011;33676;51.006;17.180;2022-07-06T10:50:52;1.70;;;1.30;;
47912;SDS011;33676;51.006;17.180;2022-07-06T10:55:56;1.60;;;1.50;;
47912;SDS011;33676;51.006;17.180;2022-07-06T10:58:50;1.50;;;1.40;;
47912;SDS011;33676;51.006;17.180;2022-07-06T11:01:21;1.60;;;1.50;;
47912;SDS011;33676;51.006;17.180;2022-07-06T11:09:02;2.20;;;1.80;;
47912;SDS011;33676;51.006;17.180;2022-07-06T11:14:11;1.20;;;1.20;;
47912;SDS011;33676;51.006;17.180;2022-07-06T11:19:22;1.50;;;1.30;;
47912;SDS011;33676;51.006;17.180;2022-07-06T11:21:57;1.20;;;1.20;;
47912;SDS011;33676;51.006;17.180;2022-07-06T11:24:36;2.20;;;1.70;;
47912;SDS011;33676;51.006;17.180;2022-07-06T11:27:06;1.40;;;1.30;;
47912;SDS011;33676;51.006;17.180;2022-07-06T11:29:37;1.80;;;1.40;;
47912;SDS011;33676;51.006;17.180;2022-07-06T11:32:08;1.80;;;1.30;;
47912;SDS011;33676;51.006;17.180;2022-07-06T11:34:43;1.60;;;1.40;;
47912;SDS011;33676;51.006;17.180;2022-07-06T11:37:14;1.10;;;1.10;;
47912;SDS011;33676;51.006;17.180;2022-07-06T11:39:44;1.90;;;1.80;;
47912;SDS011;33676;51.006;17.180;2022-07-06T11:42:17;1.80;;;1.70;;
47912;SDS011;33676;51.006;17.180;2022-07-06T11:44:46;1.80;;;1.70;;
47912;SDS011;33676;51.006;17.180;2022-07-06T11:47:15;5.40;;;2.30;;
47912;SDS011;33676;51.006;17.180;2022-07-06T11:49:51;2.20;;;2.00;;
47912;SDS011;33676;51.006;17.180;2022-07-06T11:52:22;3.60;;;1.60;;
47912;SDS011;33676;51.006;17.180;2022-07-06T11:54:57;2.20;;;2.10;;
47912;SDS011;33676;51.006;17.180;2022-07-06T11:57:30;1.30;;;1.20;;
47912;SDS011;33676;51.006;17.180;2022-07-06T12:00:01;1.30;;;1.30;;
47912;SDS011;33676;51.006;17.180;2022-07-06T12:02:30;1.50;;;1.40;;
47912;SDS011;33676;51.006;17.180;2022-07-06T12:04:59;1.50;;;1.40;;
47912;SDS011;33676;51.006;17.180;2022-07-06T12:07:28;3.20;;;2.00;;
47912;SDS011;33676;51.006;17.180;2022-07-06T12:09:57;2.60;;;2.20;;
47912;SDS011;33676;51.006;17.180;2022-07-06T12:12:26;2.40;;;2.30;;
47912;SDS011;33676;51.006;17.180;2022-07-06T12:14:55;1.90;;;1.70;;
47912;SDS011;33676;51.006;17.180;2022-07-06T12:17:24;1.50;;;1.50;;
47912;SDS011;33676;51.006;17.180;2022-07-06T12:19:54;2.60;;;1.40;;
47912;SDS011;33676;51.006;17.180;2022-07-06T12:22:26;1.60;;;1.50;;
47912;SDS011;33676;51.006;17.180;2022-07-06T12:24:55;5.40;;;1.90;;
47912;SDS011;33676;51.006;17.180;2022-07-06T12:27:24;1.50;;;1.50;;
47912;SDS011;33676;51.006;17.180;2022-07-06T12:29:53;1.50;;;1.40;;
47912;SDS011;33676;51.006;17.180;2022-07-06T12:32:40;3.60;;;1.50;;
47912;SDS011;33676;51.006;17.180;2022-07-06T12:35:09;2.90;;;1.40;;
47912;SDS011;33676;51.006;17.180;2022-07-06T12:37:54;1.40;;;1.30;;
47912;SDS011;33676;51.006;17.180;2022-07-06T12:40:26;1.50;;;1.40;;
47912;SDS011;33676;51.006;17.180;2022-07-06T12:42:56;1.80;;;1.40;;
47912;SDS011;33676;51.006;17.180;2022-07-06T12:45:28;2.40;;;1.50;;
47912;SDS011;33676;51.006;17.180;2022-07-06T12:50:37;2.10;;;1.70;;
47912;SDS011;33676;51.006;17.180;2022-07-06T12:53:27;1.40;;;1.30;;
47912;SDS011;33676;51.006;17.180;2022-07-06T12:56:10;1.20;;;1.20;;
47912;SDS011;33676;51.006;17.180;2022-07-06T12:58:40;1.60;;;1.20;;
47912;SDS011;33676;51.006;17.180;2022-07-06T13:01:27;2.00;;;1.60;;
47912;SDS011;33676;51.006;17.180;2022-07-06T13:03:56;1.80;;;1.40;;
47912;SDS011;33676;51.006;17.180;2022-07-06T13:06:44;1.70;;;1.20;;
47912;SDS011;33676;51.006;17.180;2022-07-06T13:09:13;2.60;;;1.30;;
47912;SDS011;33676;51.006;17.180;2022-07-06T13:11:43;3.20;;;1.30;;
47912;SDS011;33676;51.006;17.180;2022-07-06T13:14:13;2.10;;;1.60;;
47912;SDS011;33676;51.006;17.180;2022-07-06T13:16:43;1.70;;;1.30;;
47912;SDS011;33676;51.006;17.180;2022-07-06T13:19:14;2.30;;;1.60;;
47912;SDS011;33676;51.006;17.180;2022-07-06T13:21:43;3.30;;;1.20;;
47912;SDS011;33676;51.006;17.180;2022-07-06T13:24:13;2.20;;;1.70;;
47912;SDS011;33676;51.006;17.180;2022-07-06T13:26:42;2.80;;;1.30;;
47912;SDS011;33676;51.006;17.180;2022-07-06T13:29:11;1.20;;;1.20;;
47912;SDS011;33676;51.006;17.180;2022-07-06T13:31:41;2.90;;;0.90;;
47912;SDS011;33676;51.006;17.180;2022-07-06T13:34:10;1.90;;;1.00;;
47912;SDS011;33676;51.006;17.180;2022-07-06T13:36:39;1.40;;;1.20;;
47912;SDS011;33676;51.006;17.180;2022-07-06T13:39:10;3.00;;;1.50;;
47912;SDS011;33676;51.006;17.180;2022-07-06T13:41:39;8.60;;;7.70;;
47912;SDS011;33676;51.006;17.180;2022-07-06T13:44:08;3.00;;;2.50;;
47912;SDS011;33676;51.006;17.180;2022-07-06T13:46:42;2.80;;;1.90;;
47912;SDS011;33676;51.006;17.180;2022-07-06T13:49:11;5.20;;;1.60;;
47912;SDS011;33676;51.006;17.180;2022-07-06T13:51:40;0.90;;;0.80;;
47912;SDS011;33676;51.006;17.180;2022-07-06T13:54:10;1.70;;;1.10;;
47912;SDS011;33676;51.006;17.180;2022-07-06T13:56:39;1.70;;;1.60;;
47912;SDS011;33676;51.006;17.180;2022-07-06T13:59:08;3.20;;;2.00;;
47912;SDS011;33676;51.006;17.180;2022-07-06T14:01:37;1.70;;;1.60;;
47912;SDS011;33676;51.006;17.180;2022-07-06T14:04:06;2.30;;;1.30;;
47912;SDS011;33676;51.006;17.180;2022-07-06T14:06:35;1.60;;;1.10;;
47912;SDS011;33676;51.006;17.180;2022-07-06T14:09:05;1.50;;;1.00;;
47912;SDS011;33676;51.006;17.180;2022-07-06T14:11:35;1.10;;;1.00;;
47912;SDS011;33676;51.006;17.180;2022-07-06T14:14:04;2.90;;;1.50;;
47912;SDS011;33676;51.006;17.180;2022-07-06T14:16:35;2.40;;;1.30;;
47912;SDS011;33676;51.006;17.180;2022-07-06T14:19:04;1.80;;;1.40;;
47912;SDS011;33676;51.006;17.180;2022-07-06T14:21:33;1.90;;;1.80;;
47912;SDS011;33676;51.006;17.180;2022-07-06T14:24:02;1.80;;;1.70;;
47912;SDS011;33676;51.006;17.180;2022-07-06T14:26:32;5.00;;;2.00;;
47912;SDS011;33676;51.006;17.180;2022-07-06T14:29:01;1.10;;;0.90;;
47912;SDS011;33676;51.006;17.180;2022-07-06T14:31:30;0.90;;;0.90;;
47912;SDS011;33676;51.006;17.180;2022-07-06T14:33:59;2.30;;;1.50;;
47912;SDS011;33676;51.006;17.180;2022-07-06T14:36:28;1.30;;;1.20;;
47912;SDS011;33676;51.006;17.180;2022-07-06T14:38:57;3.60;;;1.20;;
47912;SDS011;33676;51.006;17.180;2022-07-06T14:41:26;0.90;;;0.90;;
47912;SDS011;33676;51.006;17.180;2022-07-06T14:43:55;2.20;;;1.30;;
47912;SDS011;33676;51.006;17.180;2022-07-06T14:46:24;1.00;;;1.00;;
47912;SDS011;33676;51.006;17.180;2022-07-06T14:48:53;0.90;;;0.90;;
47912;SDS011;33676;51.006;17.180;2022-07-06T14:51:22;1.10;;;1.00;;
47912;SDS011;33676;51.006;17.180;2022-07-06T14:53:52;1.20;;;1.20;;
47912;SDS011;33676;51.006;17.180;2022-07-06T14:56:21;1.90;;;1.30;;
47912;SDS011;33676;51.006;17.180;2022-07-06T14:58:50;1.50;;;1.40;;
47912;SDS011;33676;51.006;17.180;2022-07-06T15:01:39;1.60;;;1.10;;
47912;SDS011;33676;51.006;17.180;2022-07-06T15:04:08;2.40;;;1.80;;
47912;SDS011;33676;51.006;17.180;2022-07-06T15:06:37;1.30;;;1.20;;
47912;SDS011;33676;51.006;17.180;2022-07-06T15:09:24;3.50;;;1.70;;
47912;SDS011;33676;51.006;17.180;2022-07-06T15:11:55;1.90;;;1.40;;
47912;SDS011;33676;51.006;17.180;2022-07-06T15:14:24;1.80;;;1.40;;
47912;SDS011;33676;51.006;17.180;2022-07-06T15:16:53;1.50;;;1.40;;
47912;SDS011;33676;51.006;17.180;2022-07-06T15:19:22;3.40;;;1.60;;